ADDS METAR Data INFO
IDs: Format: Raw Decoded Include TAF

Data at: 1333 UTC 25 Sep 2017

KGYI 251315Z AUTO 13007KT 10SM CLR 22/19 A2994 RMK AO2 LTG DSNT NW T02220190
KGYI 251255Z AUTO 14006KT 10SM CLR 22/19 A2994 RMK AO2 T02160187
KGYI 251235Z AUTO 13007KT 10SM CLR 22/19 A2994 RMK AO2 T02160185
KGYI 251215Z AUTO 15007KT 10SM CLR 22/19 A2993 RMK AO2 T02160185
KGYI 251155Z AUTO 13007KT 10SM CLR 22/19 A2993 RMK AO2 LTG DSNT NW T02160185 10241 20216
KGYI 251135Z AUTO 12008KT 10SM CLR 22/18 A2993 RMK AO2 LTG DSNT NW T02160183
KGYI 251115Z AUTO 14007KT 10SM CLR 22/18 A2993 RMK AO2 T02180182
KGYI 251055Z AUTO 13006KT 10SM CLR 22/18 A2991 RMK AO2 T02210182
KGYI 251035Z AUTO 13008KT 10SM CLR 22/18 A2991 RMK AO2 LTG DSNT NW T02220180
KGYI 251015Z AUTO 13008KT 10SM CLR 22/18 A2991 RMK AO2 T02220180
KGYI 250955Z AUTO 13007KT 10SM CLR 22/18 A2991 RMK AO2 T02220180
KGYI 250935Z AUTO 13008KT 10SM CLR 23/18 A2990 RMK AO2 T02250180
KGYI 250915Z AUTO 14007KT 10SM CLR 23/18 A2991 RMK AO2 T02250178
KGYI 250855Z AUTO 14008KT 10SM CLR 23/18 A2991 RMK AO2 T02250179
KGYI 250835Z AUTO 16007KT 10SM CLR 22/18 A2991 RMK AO2 T02230178
KGYI 250815Z AUTO 15006KT 10SM CLR 23/18 A2991 RMK AO2 T02250178
KGYI 250755Z AUTO 14007KT 10SM CLR 23/18 A2991 RMK AO2 T02260178
KGYI 250735Z AUTO 15006KT 10SM CLR 23/18 A2991 RMK AO2 T02290177
KGYI 250715Z AUTO 14008KT 10SM CLR 23/18 A2991 RMK AO2 T02330177
KGYI 250655Z AUTO 14006KT 10SM CLR 23/18 A2991 RMK AO2 T02330178
KGYI 250635Z AUTO 14009KT 10SM CLR 24/18 A2991 RMK AO2 T02380180
KGYI 250615Z AUTO 16007KT 10SM CLR 24/18 A2991 RMK AO2 T02390180
KGYI 250555Z AUTO 15007KT 10SM CLR 24/18 A2991 RMK AO2 T02420180 10296 20241 403230221
KGYI 250535Z AUTO 14008KT 10SM CLR 25/18 A2992 RMK AO2 T02450180
KGYI 250515Z AUTO 14007KT 10SM CLR 25/18 A2991 RMK AO2 T02500181
KGYI 250455Z AUTO 13008KT 10SM CLR 25/18 A2991 RMK AO2 T02510181
KGYI 250435Z AUTO 11007KT 10SM CLR 25/18 A2991 RMK AO2 T02500180
KGYI 250415Z AUTO 11006KT 10SM CLR 25/18 A2992 RMK AO2 T02510178
KGYI 250355Z AUTO 11007KT 10SM CLR 26/18 A2992 RMK AO2 T02590177
KGYI 250335Z AUTO 13007KT 10SM CLR 27/18 A2991 RMK AO2 T02650178
KGYI 250315Z AUTO 13007KT 10SM CLR 27/18 A2991 RMK AO2 T02680178
KGYI 250255Z AUTO 13006KT 10SM CLR 27/18 A2991 RMK AO2 T02680181
KGYI 250235Z AUTO 13004KT 10SM CLR 26/19 A2991 RMK AO2 T02620185
KGYI 250215Z AUTO 11004KT 10SM CLR 26/19 A2990 RMK AO2 T02560188
KGYI 250155Z AUTO 13005KT 10SM CLR 27/19 A2990 RMK AO2 T02710185
KGYI 250135Z AUTO 13004KT 10SM CLR 27/18 A2989 RMK AO2 T02710184
KGYI 250115Z AUTO 12004KT 10SM CLR 28/18 A2988 RMK AO2 T02750183
KGYI 250055Z AUTO 13005KT 10SM CLR 28/18 A2988 RMK AO2 T02790183
KGYI 250035Z AUTO 13005KT 10SM CLR 28/18 A2987 RMK AO2 T02820182
KGYI 250015Z AUTO 13006KT 10SM CLR 29/18 A2987 RMK AO2 T02900180
KGYI 242355Z AUTO 13009KT 10SM CLR 30/18 A2986 RMK AO2 T02970177 10323 20297
KGYI 242335Z AUTO 13010KT 10SM CLR 31/18 A2987 RMK AO2 T03050176
KGYI 242315Z AUTO 15009KT 10SM CLR 31/18 A2987 RMK AO2 T03100178
KGYI 242255Z AUTO 16007KT 10SM CLR 31/18 A2986 RMK AO2 T03100176
KGYI 242235Z AUTO 15011KT 10SM SCT055 32/17 A2987 RMK AO2 T03150174
KGYI 242215Z AUTO 13009KT 10SM SCT055 32/18 A2987 RMK AO2 T03190176
KGYI 242155Z AUTO 16012KT 10SM SCT055 32/18 A2987 RMK AO2 T03220176
KGYI 242135Z AUTO 14011G15KT 10SM SCT055 32/17 A2987 RMK AO2 T03200171
KGYI 242115Z AUTO 14007KT 10SM SCT055 32/18 A2988 RMK AO2 T03200177
KGYI 242055Z AUTO 15010G17KT 10SM SCT050 32/18 A2988 RMK AO2 T03200178
KGYI 242035Z AUTO 14010KT 10SM CLR 32/18 A2989 RMK AO2 T03190182
KGYI 242015Z AUTO 13010KT 10SM CLR 32/18 A2990 RMK AO2 T03160184
KGYI 241955Z AUTO 17012KT 10SM CLR 32/18 A2991 RMK AO2 T03180182
KGYI 241935Z AUTO 14008KT 110V200 10SM SCT048 32/18 A2991 RMK AO2 T03180184
KGYI 241915Z AUTO 14009KT 10SM SCT050 SCT060 32/19 A2993 RMK AO2 T03160186
KGYI 241855Z AUTO 15011KT 10SM SCT048 SCT060 31/18 A2994 RMK AO2 T03090181
KGYI 241835Z AUTO 15011KT 10SM SCT048 30/18 A2995 RMK AO2 T03040183
KGYI 241815Z AUTO 17012G15KT 10SM SCT048 30/18 A2995 RMK AO2 T03040182
KGYI 241755Z AUTO 19005KT 10SM SCT042 SCT050 30/19 A2996 RMK AO2 T03040186 10305 20221
KGYI 241735Z AUTO 18010KT 10SM SCT042 BKN050 29/19 A2996 RMK AO2 T02940185
KGYI 241715Z AUTO 19010KT 10SM SCT040 SCT046 30/19 A2997 RMK AO2 T02970190
KGYI 241655Z AUTO 16011KT 10SM SCT038 30/19 A2997 RMK AO2 T02980193
KGYI 241635Z AUTO 17009KT 10SM CLR 29/19 A2997 RMK AO2 T02920191
KGYI 241615Z AUTO 16009G14KT 10SM CLR 29/19 A2997 RMK AO2 T02900194
KGYI 241555Z AUTO 17010KT 10SM CLR 28/20 A2997 RMK AO2 T02840199
KGYI 241535Z AUTO 15008KT 10SM CLR 27/20 A2998 RMK AO2 T02720202
KGYI 241515Z AUTO 16011KT 10SM CLR 27/21 A2998 RMK AO2 T02720206
KGYI 241455Z AUTO 16008KT 10SM CLR 26/21 A2998 RMK AO2 T02640208
KGYI 241435Z AUTO 15006KT 10SM CLR 26/21 A2997 RMK AO2 T02570209
KGYI 241415Z AUTO 16005KT 10SM CLR 24/21 A2997 RMK AO2 T02440206
KGYI 241355Z AUTO 15006KT 10SM CLR 24/21 A2996 RMK AO2 T02410206
KGYI 241335Z AUTO 15007KT 10SM CLR 24/21 A2995 RMK AO2 T02380206
KGYI 241315Z AUTO 13005KT 10SM CLR 23/20 A2995 RMK AO2 T02300204
KGYI 241255Z AUTO 13006KT 10SM CLR 23/20 A2994 RMK AO2 T02260202
KGYI 241235Z AUTO 13007KT 10SM CLR 22/20 A2993 RMK AO2 T02220200
KGYI 241215Z AUTO 13006KT 10SM CLR 22/20 A2992 RMK AO2 T02220200
KGYI 241155Z AUTO 13006KT 10SM CLR 22/20 A2992 RMK AO2 T02220200 10253 20221
KGYI 241135Z AUTO 13006KT 10SM CLR 22/20 A2992 RMK AO2 T02220198
KGYI 241115Z AUTO 14005KT 10SM CLR 22/20 A2992 RMK AO2 T02230198
KGYI 241055Z AUTO 13006KT 10SM CLR 23/20 A2991 RMK AO2 T02260198
KGYI 241035Z AUTO 11005KT 10SM CLR 23/20 A2991 RMK AO2 T02290198
KGYI 241015Z AUTO 12006KT 10SM CLR 23/20 A2991 RMK AO2 T02290197
KGYI 240955Z AUTO 07006KT 10SM CLR 23/20 A2992 RMK AO2 T02320197
KGYI 240935Z AUTO 12007KT 340V270 10SM CLR 23/20 A2991 RMK AO2 T02330196
KGYI 240915Z AUTO 13006KT 10SM CLR 23/20 A2991 RMK AO2 T02330195
KGYI 240855Z AUTO 36007KT 240V170 10SM CLR 24/20 A2991 RMK AO2 T02360195
KGYI 240835Z AUTO 36005KT 10SM CLR 24/19 A2991 RMK AO2 T02350194
KGYI 240815Z AUTO 14006KT 10SM CLR 24/19 A2991 RMK AO2 T02380194
KGYI 240755Z AUTO 14006KT 10SM CLR 24/20 A2992 RMK AO2 T02400195
KGYI 240735Z AUTO 14005KT 10SM CLR 24/19 A2992 RMK AO2 T02410194
KGYI 240715Z AUTO 14006KT 10SM CLR 24/19 A2991 RMK AO2 T02440193
KGYI 240655Z AUTO 14006KT 10SM CLR 25/19 A2991 RMK AO2 T02460192
KGYI 240635Z AUTO 14007KT 10SM CLR 25/19 A2991 RMK AO2 T02490191
KGYI 240615Z AUTO 13007KT 330V270 10SM CLR 25/19 A2991 RMK AO2 T02510191
KGYI 240555Z AUTO 13007KT 340V310 10SM CLR 25/19 A2990 RMK AO2 T02530190 10305 20253 403360208
KGYI 240535Z AUTO 14007KT 10SM CLR 26/19 A2990 RMK AO2 T02600190
KGYI 240515Z AUTO 14007KT 10SM SCT100 26/19 A2990 RMK AO2 T02600188
KGYI 240455Z AUTO 14007KT 10SM CLR 26/19 A2990 RMK AO2 T02620187
KGYI 240435Z AUTO 13007KT 330V140 10SM SCT110 27/19 A2990 RMK AO2 T02650186
KGYI 240415Z AUTO 13008KT 10SM CLR 27/19 A2990 RMK AO2 T02670185
KGYI 240355Z AUTO 13007KT 10SM CLR 27/18 A2990 RMK AO2 T02710182
KGYI 240335Z AUTO 13007KT 10SM CLR 27/18 A2989 RMK AO2 T02720182
KGYI 240315Z AUTO 13005KT 10SM BKN120 27/19 A2990 RMK AO2 T02680187
KGYI 240255Z AUTO 12005KT 10SM BKN120 26/19 A2990 RMK AO2 T02630192
KGYI 240235Z AUTO 11005KT 10SM SCT120 27/19 A2990 RMK AO2 T02650191
KGYI 240215Z AUTO 12006KT 10SM CLR 27/19 A2991 RMK AO2 T02700190
KGYI 240155Z AUTO 11009KT 10SM CLR 28/19 A2990 RMK AO2 T02760188
KGYI 240135Z AUTO 12005KT 10SM CLR 27/19 A2990 RMK AO2 T02740185